KACT - Waco Rgnl, TX, US

Issued at 2320 UTC 31 Oct 2020
Updated at 0109 UTC 01 Nov 2020
Potential Impact None Slight Moderate High
Time0051Z 01/02Z 01/03Z 01/04Z 01/05Z 01/06Z 01/07Z 01/08Z 01/09Z 01/10Z 01/11Z 01/12Z 01/13Z 01/14Z>>
Type OBS PRVL PRVL PRVL PRVL PRVL PRVL PRVL PRVL PRVL PRVL PRVL PRVL PRVL
VIS 10 >6 >6 >6 >6 >6 >6 >6 >6 >6 >6 >6 >6 >6
CIG -- -- -- -- -- -- -- -- -- 250 250 250 250 250
Cover CLR SCT SCT SCT SCT SCT SCT SCT SCT BKN BKN BKN BKN BKN
FltCat VFR VFR VFR VFR VFR VFR VFR VFR VFR VFR VFR VFR VFR VFR
WX -- -- -- -- -- -- -- -- -- -- -- -- -- --
WDir 140 160 160 160 160 160 160 160 160 50 50 50 50 50
WSpd 5 7 7 7 7 7 7 7 7 3 3 3 3 3
WGst -- -- -- -- -- -- -- -- -- -- -- -- -- --
Raw TAF
KACT 312320Z 0100/0124 16007KT P6SM SCT250
  FM011000 05003KT P6SM BKN250
  FM011500 02015G25KT P6SM FEW250


Raw METAR
KACT 010051Z 14005KT 10SM CLR 16/07 A3011 RMK AO2 SLP197 T01560072
KACT 312351Z 14006KT 10SM CLR 18/07 A3009 RMK AO2 SLP188 T01780067 10228 20172 55001
KACT 312251Z AUTO 15008KT 10SM CLR 22/06 A3009 RMK AO2 SLP186 T02170061

METAR Board
Radar Display
Forecast Discussion
For situational awareness. Not to be used for flight planning purposes.